Time;durP1;ratioP1;P1;durP2;ratioP2;P2;SDS_P1;SDS_P2;PMS_P1;PMS_P2;Temp;Humidity;BMP_temperature;BMP_pressure;BME280_temperature;BME280_humidity;BME280_pressure;Samples;Min_cycle;Max_cycle;Signal;HPM_P1;HPM_P2
2023/01/07 00:00:53;;;;;;;2.25;1.25;;;8.80;99.90;;;;;;5031363;28;20217;-70
2023/01/07 00:03:20;;;;;;;2.08;1.85;;;8.80;99.90;;;;;;5032005;28;20210;-70
2023/01/07 00:05:46;;;;;;;1.15;1.05;;;8.80;99.90;;;;;;5031840;28;20635;-70
2023/01/07 00:08:13;;;;;;;1.60;1.38;;;8.80;99.90;;;;;;5031714;28;20210;-70
2023/01/07 00:10:41;;;;;;;2.00;1.33;;;8.80;99.90;;;;;;5031274;28;20205;-69
2023/01/07 00:13:08;;;;;;;1.45;1.20;;;8.80;99.90;;;;;;5031953;28;20208;-70
2023/01/07 00:15:34;;;;;;;1.33;1.15;;;8.80;99.90;;;;;;5031662;28;20222;-70
2023/01/07 00:18:01;;;;;;;2.45;1.70;;;8.80;99.90;;;;;;5031748;28;20574;-70
2023/01/07 00:20:28;;;;;;;2.60;1.75;;;8.80;99.90;;;;;;5031402;28;20224;-70
2023/01/07 00:22:54;;;;;;;1.50;1.30;;;8.80;99.90;;;;;;5031293;28;20205;-69
2023/01/07 00:25:21;;;;;;;1.88;1.50;;;8.80;99.90;;;;;;5031643;28;20221;-70
2023/01/07 00:27:49;;;;;;;2.08;1.52;;;8.70;99.90;;;;;;5031357;28;20205;-70
2023/01/07 00:30:16;;;;;;;1.13;1.00;;;8.70;99.90;;;;;;5031256;28;20580;-69
2023/01/07 00:32:58;;;;;;;2.17;1.40;;;8.70;99.90;;;;;;5031408;28;20572;-69
2023/01/07 00:35:25;;;;;;;1.63;1.40;;;8.70;99.90;;;;;;5031475;28;20198;-70
2023/01/07 00:37:53;;;;;;;1.77;1.40;;;8.70;99.90;;;;;;5031194;28;20206;-69
2023/01/07 00:40:21;;;;;;;1.60;1.42;;;8.70;99.90;;;;;;5030722;28;20699;-70
2023/01/07 00:43:00;;;;;;;1.58;1.40;;;8.70;99.90;;;;;;5031153;28;20209;-69
2023/01/07 00:45:28;;;;;;;1.88;1.50;;;8.70;99.90;;;;;;5031005;28;20786;-69
2023/01/07 00:47:56;;;;;;;1.75;1.30;;;8.70;99.90;;;;;;5031045;28;20237;-69
2023/01/07 00:50:24;;;;;;;1.95;1.60;;;8.60;99.90;;;;;;5030710;28;20205;-70
2023/01/07 00:52:51;;;;;;;1.50;1.40;;;8.70;99.90;;;;;;5030729;28;20620;-69
2023/01/07 00:55:18;;;;;;;1.83;1.42;;;8.60;99.90;;;;;;5031209;28;20209;-69
2023/01/07 00:57:45;;;;;;;1.90;1.60;;;8.70;99.90;;;;;;5030896;28;20206;-70
2023/01/07 01:00:16;;;;;;;2.10;1.80;;;8.70;99.90;;;;;;5030688;28;20209;-69
2023/01/07 01:02:43;;;;;;;1.20;1.08;;;8.70;99.90;;;;;;5030883;28;20206;-69
2023/01/07 01:05:11;;;;;;;1.10;1.00;;;8.70;99.90;;;;;;5030775;28;20222;-69
2023/01/07 01:07:38;;;;;;;1.60;1.50;;;8.70;99.90;;;;;;5030960;28;20201;-69
2023/01/07 01:10:07;;;;;;;2.22;1.40;;;8.70;99.90;;;;;;5029924;28;20209;-69
2023/01/07 01:12:34;;;;;;;1.20;1.10;;;8.70;99.90;;;;;;5030853;28;20202;-69
2023/01/07 01:15:02;;;;;;;1.30;1.20;;;8.60;99.90;;;;;;5030637;28;20237;-69
2023/01/07 01:17:30;;;;;;;1.40;1.30;;;8.60;99.90;;;;;;5030707;28;20225;-68
2023/01/07 01:19:57;;;;;;;1.90;1.63;;;8.60;99.90;;;;;;5029884;28;20614;-69
2023/01/07 01:22:23;;;;;;;1.60;1.42;;;8.60;99.90;;;;;;5030646;28;20210;-69
2023/01/07 01:24:50;;;;;;;1.70;1.60;;;8.50;99.90;;;;;;5030716;28;20222;-70
2023/01/07 01:27:19;;;;;;;1.48;1.38;;;8.50;99.90;;;;;;5030463;28;20228;-70
2023/01/07 01:29:46;;;;;;;2.20;1.45;;;8.50;99.90;;;;;;5029866;28;20202;-70
2023/01/07 01:32:13;;;;;;;1.10;1.00;;;8.40;99.90;;;;;;5030644;28;20213;-70
2023/01/07 01:34:41;;;;;;;2.20;1.80;;;8.50;99.90;;;;;;5030122;28;20197;-69
2023/01/07 01:37:08;;;;;;;1.85;1.65;;;8.40;99.90;;;;;;5030581;28;20252;-69
2023/01/07 01:39:34;;;;;;;1.27;1.17;;;8.40;99.90;;;;;;5029128;28;20197;-69
2023/01/07 01:42:01;;;;;;;1.27;1.17;;;8.40;99.90;;;;;;5030097;28;20684;-69
2023/01/07 01:44:40;;;;;;;1.20;1.08;;;8.40;99.90;;;;;;5028035;28;20213;-69
2023/01/07 01:47:14;;;;;;;1.30;1.17;;;8.40;99.90;;;;;;5030093;28;20226;-69
2023/01/07 01:49:49;;;;;;;1.30;1.10;;;8.40;99.90;;;;;;5029653;28;20212;-69
2023/01/07 01:52:19;;;;;;;1.88;1.15;;;8.40;99.90;;;;;;5029506;28;20201;-69
2023/01/07 01:54:57;;;;;;;1.30;1.20;;;8.50;99.90;;;;;;5030099;28;20572;-69
2023/01/07 01:57:26;;;;;;;1.52;1.38;;;8.40;99.90;;;;;;5030127;28;20260;-70
2023/01/07 01:59:54;;;;;;;1.60;1.30;;;8.50;99.90;;;;;;5029500;28;20220;-69
2023/01/07 02:02:27;;;;;;;1.30;1.13;;;8.50;99.90;;;;;;5030737;28;20608;-70
2023/01/07 02:04:57;;;;;;;1.90;1.23;;;8.50;99.90;;;;;;5030480;28;20562;-69
2023/01/07 02:07:24;;;;;;;2.08;1.30;;;8.50;99.90;;;;;;5030070;28;20249;-69
2023/01/07 02:09:58;;;;;;;1.55;1.45;;;8.50;99.90;;;;;;5029111;28;20201;-69
2023/01/07 02:12:39;;;;;;;1.60;1.20;;;8.50;99.90;;;;;;5030246;28;20204;-69
2023/01/07 02:15:12;;;;;;;1.20;1.10;;;8.50;99.90;;;;;;5030058;28;20197;-70
2023/01/07 02:17:59;;;;;;;1.23;1.13;;;8.50;99.90;;;;;;5030134;28;20561;-70
2023/01/07 02:20:39;;;;;;;1.20;1.10;;;8.50;99.90;;;;;;5026884;28;20202;-70
2023/01/07 02:23:47;;;;;;;1.10;1.00;;;8.40;99.90;;;;;;5029972;28;20205;-70
2023/01/07 02:27:00;;;;;;;1.38;1.15;;;8.50;99.90;;;;;;5029787;28;20229;-70
2023/01/07 02:30:15;;;;;;;1.42;1.30;;;8.40;99.90;;;;;;5029235;28;20570;-69
2023/01/07 02:33:07;;;;;;;1.17;1.08;;;8.50;99.90;;;;;;5029694;28;20201;-69
2023/01/07 02:35:48;;;;;;;1.00;0.77;;;8.40;99.90;;;;;;5029689;28;21016;-69
2023/01/07 02:38:24;;;;;;;1.13;0.90;;;8.40;99.90;;;;;;5029654;28;20206;-69
2023/01/07 02:40:58;;;;;;;1.30;1.05;;;8.40;99.90;;;;;;5029645;28;20205;-69
2023/01/07 02:43:33;;;;;;;1.45;1.25;;;8.40;99.90;;;;;;5029912;28;20212;-69
2023/01/07 02:46:09;;;;;;;1.38;1.27;;;8.40;99.90;;;;;;5029436;28;20225;-69
2023/01/07 02:48:38;;;;;;;1.60;1.20;;;8.40;99.90;;;;;;5029305;28;20271;-69
2023/01/07 02:51:05;;;;;;;1.10;1.00;;;8.40;99.90;;;;;;5029628;28;20213;-69
2023/01/07 02:53:33;;;;;;;1.55;1.33;;;8.40;99.90;;;;;;5029923;28;20201;-69
2023/01/07 02:56:17;;;;;;;1.45;1.20;;;8.30;99.90;;;;;;5029704;28;20218;-69
2023/01/07 02:58:58;;;;;;;1.45;1.17;;;8.30;99.90;;;;;;5029069;28;20205;-69
2023/01/07 03:01:46;;;;;;;1.38;1.27;;;8.30;99.90;;;;;;5029818;28;20342;-71
2023/01/07 03:04:28;;;;;;;3.28;1.40;;;8.30;99.90;;;;;;5031628;28;20685;-68
2023/01/07 03:07:14;;;;;;;1.98;1.08;;;8.30;99.90;;;;;;5033023;28;20248;-68
2023/01/07 03:09:46;;;;;;;1.40;1.30;;;8.30;99.90;;;;;;5032441;28;20201;-70
2023/01/07 03:12:18;;;;;;;14.95;1.85;;;8.30;99.90;;;;;;5035398;28;20205;-70
2023/01/07 03:14:49;;;;;;;1.98;1.30;;;8.30;99.90;;;;;;5036512;28;20193;-70
2023/01/07 03:17:20;;;;;;;3.85;1.42;;;8.30;99.90;;;;;;5036276;28;20222;-71
2023/01/07 03:22:20;;;;;;;1.85;1.27;;;8.20;99.90;;;;;;5090029;28;20215;-70
2023/01/07 03:24:50;;;;;;;1.63;1.30;;;8.20;99.90;;;;;;5093194;28;20219;-71
2023/01/07 03:27:19;;;;;;;1.23;1.00;;;8.20;99.90;;;;;;5075612;28;20224;-71
2023/01/07 03:29:47;;;;;;;1.40;1.30;;;8.20;99.90;;;;;;5072165;28;20201;-71
2023/01/07 03:32:16;;;;;;;1.40;1.20;;;8.20;99.90;;;;;;5072811;28;20211;-71
2023/01/07 03:34:44;;;;;;;1.55;1.20;;;8.20;99.90;;;;;;5072347;28;20200;-70
2023/01/07 03:37:13;;;;;;;1.52;1.42;;;8.30;99.90;;;;;;5072656;28;20220;-70
2023/01/07 03:39:43;;;;;;;1.40;1.10;;;8.30;99.90;;;;;;5071750;28;20207;-70
2023/01/07 03:44:56;;;;;;;2.10;1.30;;;8.30;99.90;;;;;;5072436;28;20231;-69
2023/01/07 03:47:23;;;;;;;1.40;1.30;;;8.30;99.90;;;;;;5072021;28;20226;-70
2023/01/07 03:49:50;;;;;;;1.17;1.08;;;8.30;99.90;;;;;;5071771;28;20223;-70
2023/01/07 03:52:16;;;;;;;1.15;1.00;;;8.30;99.90;;;;;;5072457;28;20211;-70
2023/01/07 03:54:45;;;;;;;1.10;1.00;;;8.30;99.90;;;;;;5072111;28;20295;-70
2023/01/07 03:57:11;;;;;;;1.40;1.10;;;8.30;99.90;;;;;;5072149;28;20225;-69
2023/01/07 03:59:38;;;;;;;1.48;1.27;;;8.30;99.90;;;;;;5071532;28;20204;-70
2023/01/07 04:02:05;;;;;;;1.52;1.20;;;8.30;99.90;;;;;;5072077;28;20208;-69
2023/01/07 04:04:32;;;;;;;1.30;1.08;;;8.30;99.90;;;;;;5072131;28;20416;-70
2023/01/07 04:06:58;;;;;;;1.67;1.10;;;8.30;99.90;;;;;;5071754;28;20232;-70
2023/01/07 04:09:25;;;;;;;1.42;1.30;;;8.20;99.90;;;;;;5071559;28;20204;-70
2023/01/07 04:11:53;;;;;;;1.15;1.05;;;8.20;99.90;;;;;;5071859;28;20200;-70
2023/01/07 04:14:20;;;;;;;1.88;1.25;;;8.20;99.90;;;;;;5071680;28;20204;-70
2023/01/07 04:16:49;;;;;;;1.58;1.48;;;8.30;99.90;;;;;;5071647;28;20220;-70
2023/01/07 04:19:16;;;;;;;1.30;1.20;;;8.30;99.90;;;;;;5071422;28;20204;-70
2023/01/07 04:21:43;;;;;;;1.45;1.20;;;8.30;99.90;;;;;;5071502;28;20208;-69
2023/01/07 04:24:10;;;;;;;1.55;1.30;;;8.30;99.90;;;;;;5071780;28;20575;-69
2023/01/07 04:26:36;;;;;;;1.45;1.35;;;8.30;99.90;;;;;;5071567;28;20628;-69
2023/01/07 04:29:04;;;;;;;1.52;1.42;;;8.20;99.90;;;;;;5071116;28;20219;-69
2023/01/07 04:31:31;;;;;;;1.25;1.10;;;8.30;99.90;;;;;;5071619;28;20571;-69
2023/01/07 04:33:58;;;;;;;1.50;1.20;;;8.30;99.90;;;;;;5071300;28;20216;-70
2023/01/07 04:36:24;;;;;;;1.00;0.90;;;8.30;99.90;;;;;;5071494;28;20583;-70
2023/01/07 04:38:51;;;;;;;1.13;1.02;;;8.30;99.90;;;;;;5070618;28;20315;-70
2023/01/07 04:41:18;;;;;;;1.73;1.25;;;8.30;99.90;;;;;;5071410;28;20196;-69
2023/01/07 04:43:45;;;;;;;1.42;1.10;;;8.30;99.90;;;;;;5071124;28;20216;-70
2023/01/07 04:46:13;;;;;;;1.15;1.05;;;8.30;99.90;;;;;;5071069;28;20231;-70
2023/01/07 04:48:39;;;;;;;1.15;1.05;;;8.30;99.90;;;;;;5070891;28;20200;-69
2023/01/07 04:51:06;;;;;;;3.53;1.83;;;8.30;99.90;;;;;;5071041;28;20204;-70
2023/01/07 04:53:33;;;;;;;1.65;1.00;;;8.30;99.90;;;;;;5071374;28;20204;-69
2023/01/07 04:55:59;;;;;;;1.30;1.20;;;8.30;99.90;;;;;;5071169;28;20618;-70
2023/01/07 04:58:26;;;;;;;1.85;1.58;;;8.30;99.90;;;;;;5070654;28;20204;-70
2023/01/07 05:00:56;;;;;;;1.10;0.90;;;8.30;99.90;;;;;;5071115;28;20548;-69
2023/01/07 05:03:25;;;;;;;1.35;1.20;;;8.30;99.90;;;;;;5070849;28;20204;-69
2023/01/07 05:05:51;;;;;;;1.63;1.30;;;8.30;99.90;;;;;;5070863;28;20286;-69
2023/01/07 05:08:18;;;;;;;1.95;1.40;;;8.20;99.90;;;;;;5070346;28;20204;-69
2023/01/07 05:10:45;;;;;;;1.48;1.38;;;8.20;99.90;;;;;;5070865;28;20200;-69
2023/01/07 05:13:15;;;;;;;1.50;1.20;;;8.30;99.90;;;;;;5071135;28;20225;-70
2023/01/07 05:15:41;;;;;;;1.70;1.60;;;8.20;99.90;;;;;;5070703;28;20220;-69
2023/01/07 05:18:08;;;;;;;1.48;1.38;;;8.10;99.90;;;;;;5070899;28;20667;-68
2023/01/07 05:20:36;;;;;;;1.65;1.35;;;8.10;99.90;;;;;;5070178;28;20303;-70
2023/01/07 05:23:04;;;;;;;1.25;1.15;;;8.10;99.90;;;;;;5070757;28;20208;-70
2023/01/07 05:25:31;;;;;;;1.75;1.40;;;8.10;99.90;;;;;;5070259;28;20244;-70
2023/01/07 05:27:57;;;;;;;1.50;1.40;;;8.10;99.90;;;;;;5070275;28;20204;-70
2023/01/07 05:30:24;;;;;;;1.75;1.65;;;8.10;99.90;;;;;;5070293;28;20201;-69
2023/01/07 05:32:51;;;;;;;1.70;1.30;;;8.10;99.90;;;;;;5070498;28;20249;-70
2023/01/07 05:35:18;;;;;;;1.55;1.33;;;8.10;99.90;;;;;;5070675;28;20211;-70
2023/01/07 05:37:46;;;;;;;1.88;1.55;;;8.10;99.90;;;;;;5070349;28;20586;-70
2023/01/07 05:40:13;;;;;;;1.50;1.40;;;8.00;99.90;;;;;;5070019;28;20204;-70
2023/01/07 05:42:39;;;;;;;1.30;1.20;;;8.00;99.90;;;;;;5070500;28;20205;-69
2023/01/07 05:45:07;;;;;;;1.40;1.17;;;8.00;99.90;;;;;;5070331;28;20573;-69
2023/01/07 05:47:34;;;;;;;1.48;1.38;;;8.00;99.90;;;;;;5070388;28;20228;-70
2023/01/07 05:50:01;;;;;;;1.48;1.33;;;8.00;99.90;;;;;;5069688;28;20204;-70
2023/01/07 05:52:27;;;;;;;1.52;1.30;;;8.00;99.90;;;;;;5070511;28;20204;-68
2023/01/07 05:54:55;;;;;;;1.30;1.10;;;8.00;99.90;;;;;;5070333;28;20211;-69
2023/01/07 05:57:22;;;;;;;1.42;1.30;;;7.90;99.90;;;;;;5070165;28;20216;-69
2023/01/07 05:59:49;;;;;;;1.30;1.20;;;8.00;99.90;;;;;;5069843;28;20201;-70
2023/01/07 06:02:16;;;;;;;1.30;1.20;;;8.00;99.90;;;;;;5070217;28;20655;-70
2023/01/07 06:04:43;;;;;;;1.40;1.13;;;7.90;99.90;;;;;;5070349;28;20607;-70
2023/01/07 06:07:09;;;;;;;1.25;1.10;;;8.00;99.90;;;;;;5070194;28;20277;-70
2023/01/07 06:09:36;;;;;;;1.45;1.35;;;8.00;99.90;;;;;;5069695;28;20203;-70
2023/01/07 06:12:04;;;;;;;1.25;1.15;;;7.90;99.90;;;;;;5070068;28;20200;-69
2023/01/07 06:14:31;;;;;;;1.80;1.50;;;7.90;99.90;;;;;;5070233;28;20266;-70
2023/01/07 06:16:58;;;;;;;1.52;1.30;;;7.90;99.90;;;;;;5070151;28;20223;-68
2023/01/07 06:19:25;;;;;;;1.40;1.25;;;7.90;99.90;;;;;;5069661;28;20203;-70
2023/01/07 06:21:52;;;;;;;1.33;1.23;;;7.80;99.90;;;;;;5069964;28;20208;-68
2023/01/07 06:24:18;;;;;;;1.50;1.40;;;7.80;99.90;;;;;;5070156;28;20672;-68
2023/01/07 06:26:45;;;;;;;1.90;1.40;;;7.80;99.90;;;;;;5069738;28;20228;-69
2023/01/07 06:29:13;;;;;;;2.28;1.25;;;7.80;99.90;;;;;;5069346;28;20212;-69
2023/01/07 06:31:40;;;;;;;1.60;1.10;;;7.80;99.90;;;;;;5069250;28;20204;-68
2023/01/07 06:34:06;;;;;;;1.65;1.35;;;7.80;99.90;;;;;;5069565;28;20197;-69
2023/01/07 06:36:33;;;;;;;2.60;1.50;;;7.80;99.90;;;;;;5069239;28;20582;-69
2023/01/07 06:39:00;;;;;;;1.23;1.13;;;7.80;99.90;;;;;;5072539;28;20203;-68
2023/01/07 06:41:26;;;;;;;1.77;1.30;;;7.80;99.90;;;;;;5073245;28;20196;-68
2023/01/07 06:43:53;;;;;;;1.20;1.10;;;7.80;99.90;;;;;;5073436;28;20200;-68
2023/01/07 06:46:21;;;;;;;1.55;1.30;;;7.80;99.90;;;;;;5073758;28;20268;-68
2023/01/07 06:48:48;;;;;;;1.08;0.98;;;7.80;99.90;;;;;;5072899;28;20201;-70
2023/01/07 06:51:15;;;;;;;1.20;1.10;;;7.70;99.90;;;;;;5073791;28;20204;-68
2023/01/07 06:53:41;;;;;;;1.50;1.20;;;7.70;99.90;;;;;;5073458;28;20205;-68
2023/01/07 06:56:08;;;;;;;1.58;1.40;;;7.70;99.90;;;;;;5073710;28;20220;-70
2023/01/07 06:58:35;;;;;;;1.30;1.17;;;7.70;99.90;;;;;;5073029;28;20678;-70
2023/01/07 07:01:04;;;;;;;1.05;0.90;;;7.70;99.90;;;;;;5073044;28;20203;-70
2023/01/07 07:03:32;;;;;;;1.65;1.30;;;7.60;99.90;;;;;;5072873;28;20205;-70
2023/01/07 07:05:59;;;;;;;1.55;1.15;;;7.70;99.90;;;;;;5072886;28;20224;-70
2023/01/07 07:08:25;;;;;;;1.30;1.20;;;7.60;99.90;;;;;;5077946;28;20189;-71
2023/01/07 07:10:52;;;;;;;1.45;1.20;;;7.60;99.90;;;;;;5072657;28;20200;-70
2023/01/07 07:13:19;;;;;;;1.30;1.20;;;7.50;99.90;;;;;;5072954;28;20703;-69
2023/01/07 07:15:46;;;;;;;1.65;1.20;;;7.60;99.90;;;;;;5072845;28;20235;-70
2023/01/07 07:18:12;;;;;;;1.02;0.90;;;7.60;99.90;;;;;;5072749;28;20571;-70
2023/01/07 07:20:40;;;;;;;1.92;1.30;;;7.60;99.90;;;;;;5072771;28;20219;-70
2023/01/07 07:23:07;;;;;;;1.33;1.10;;;7.60;99.90;;;;;;5072843;28;20197;-69
2023/01/07 07:25:34;;;;;;;1.33;1.23;;;7.60;99.90;;;;;;5072808;28;20227;-68
2023/01/07 07:28:01;;;;;;;1.42;1.20;;;7.60;99.90;;;;;;5073067;28;20224;-69
2023/01/07 07:30:27;;;;;;;1.20;1.10;;;7.60;99.90;;;;;;5072202;28;20200;-69
2023/01/07 07:32:54;;;;;;;2.22;1.00;;;7.70;99.90;;;;;;5072960;28;20212;-69
2023/01/07 07:35:21;;;;;;;1.40;1.30;;;7.70;99.90;;;;;;5072788;28;20208;-69
2023/01/07 07:37:49;;;;;;;2.10;1.50;;;7.80;99.90;;;;;;5072816;28;20303;-70
2023/01/07 07:40:15;;;;;;;1.45;1.17;;;7.70;99.90;;;;;;5072275;28;20201;-70
2023/01/07 07:42:42;;;;;;;1.00;0.90;;;7.70;99.90;;;;;;5071878;28;20212;-70
2023/01/07 07:45:10;;;;;;;1.45;1.20;;;7.80;99.90;;;;;;5072879;28;20207;-70
2023/01/07 07:47:36;;;;;;;1.88;1.77;;;7.80;99.90;;;;;;5072227;28;20224;-70
2023/01/07 07:50:04;;;;;;;1.48;1.33;;;7.80;99.90;;;;;;5071255;28;20606;-70
2023/01/07 07:52:31;;;;;;;2.17;1.30;;;7.80;99.90;;;;;;5072157;28;20691;-70
2023/01/07 07:54:58;;;;;;;1.42;1.25;;;7.80;99.90;;;;;;5072370;28;20894;-70
2023/01/07 07:57:25;;;;;;;1.17;0.93;;;7.90;99.90;;;;;;5072168;28;20560;-71
2023/01/07 07:59:52;;;;;;;1.60;1.40;;;7.90;99.90;;;;;;5071483;28;20215;-70
2023/01/07 08:02:19;;;;;;;1.20;1.10;;;7.90;99.90;;;;;;5072249;28;20200;-70
2023/01/07 08:04:45;;;;;;;1.25;1.10;;;7.90;99.90;;;;;;5071049;28;20453;-70
2023/01/07 08:07:13;;;;;;;1.38;1.27;;;7.90;99.90;;;;;;5072185;28;20232;-70
2023/01/07 08:09:39;;;;;;;1.58;1.48;;;7.90;99.90;;;;;;5071401;28;20207;-70
2023/01/07 08:12:08;;;;;;;1.73;1.10;;;8.00;99.90;;;;;;5071826;28;20208;-70
2023/01/07 08:14:36;;;;;;;1.00;0.90;;;8.00;99.90;;;;;;5071796;28;20706;-70
2023/01/07 08:17:02;;;;;;;0.93;0.80;;;8.10;99.90;;;;;;5071554;28;20324;-70
2023/01/07 08:19:29;;;;;;;1.20;1.00;;;8.10;99.90;;;;;;5070097;28;20868;-70
2023/01/07 08:21:56;;;;;;;1.35;1.13;;;8.10;99.90;;;;;;5071465;28;20595;-70
2023/01/07 08:24:22;;;;;;;1.20;1.10;;;8.10;99.90;;;;;;5071848;28;20223;-70
2023/01/07 08:26:49;;;;;;;1.30;1.20;;;8.10;99.90;;;;;;5071287;28;20232;-70
2023/01/07 08:29:17;;;;;;;1.20;1.10;;;8.10;99.90;;;;;;5071095;28;20341;-70
2023/01/07 08:31:44;;;;;;;1.40;1.30;;;8.20;99.90;;;;;;5071615;28;20383;-70
2023/01/07 08:34:10;;;;;;;1.30;1.20;;;8.20;99.90;;;;;;5068344;28;20205;-71
2023/01/07 08:36:38;;;;;;;1.50;1.38;;;8.20;99.90;;;;;;5071325;28;20231;-70
2023/01/07 08:39:04;;;;;;;1.30;1.20;;;8.20;99.90;;;;;;5070623;28;20210;-70
2023/01/07 08:41:31;;;;;;;2.65;1.30;;;8.20;99.90;;;;;;5071202;28;20205;-71
2023/01/07 08:43:58;;;;;;;1.60;1.25;;;8.30;99.90;;;;;;5070498;28;20207;-71
2023/01/07 08:46:26;;;;;;;1.48;1.20;;;8.30;99.90;;;;;;5070836;28;20749;-71
2023/01/07 08:48:53;;;;;;;1.73;1.30;;;8.30;99.90;;;;;;5070594;28;20204;-71
2023/01/07 08:51:19;;;;;;;1.40;1.30;;;8.30;99.90;;;;;;5064181;28;20671;-69
2023/01/07 08:53:47;;;;;;;2.95;1.10;;;8.30;99.90;;;;;;5069028;28;20196;-70
2023/01/07 08:56:13;;;;;;;1.20;1.08;;;8.30;99.90;;;;;;5069855;28;20252;-71
2023/01/07 08:58:40;;;;;;;0.93;0.80;;;8.30;99.90;;;;;;5068573;28;20207;-70
2023/01/07 09:01:07;;;;;;;1.30;1.10;;;8.40;99.90;;;;;;5069400;28;20211;-71
2023/01/07 09:03:36;;;;;;;1.67;1.40;;;8.40;99.90;;;;;;5069547;28;20204;-68
2023/01/07 09:06:03;;;;;;;1.35;1.25;;;8.50;99.90;;;;;;5069583;28;20732;-68
2023/01/07 09:08:30;;;;;;;1.40;1.30;;;8.60;99.90;;;;;;5069835;28;20225;-68
2023/01/07 09:10:57;;;;;;;1.52;1.42;;;8.70;99.90;;;;;;5069727;28;20742;-68
2023/01/07 09:13:24;;;;;;;1.65;1.50;;;8.80;99.90;;;;;;5070094;28;20258;-69
2023/01/07 09:15:52;;;;;;;1.92;1.15;;;8.90;99.90;;;;;;5069390;28;20664;-72
2023/01/07 09:18:19;;;;;;;1.50;1.40;;;8.70;99.90;;;;;;5067817;28;20223;-68
2023/01/07 09:20:47;;;;;;;1.60;1.30;;;8.70;99.90;;;;;;5069561;28;20244;-69
2023/01/07 09:23:14;;;;;;;1.90;1.30;;;8.70;99.90;;;;;;5070175;28;20287;-69
2023/01/07 09:25:42;;;;;;;1.75;1.40;;;8.80;99.90;;;;;;5069667;28;20220;-70
2023/01/07 09:28:09;;;;;;;1.65;1.40;;;8.90;99.90;;;;;;5068588;28;20272;-69
2023/01/07 09:30:36;;;;;;;2.13;1.83;;;8.90;99.90;;;;;;5069687;28;20201;-69
2023/01/07 09:33:03;;;;;;;2.15;1.95;;;9.00;99.90;;;;;;5069270;28;20207;-69
2023/01/07 09:35:30;;;;;;;2.50;2.15;;;9.10;99.90;;;;;;5069539;28;20208;-70
2023/01/07 09:37:59;;;;;;;2.58;2.03;;;9.10;99.90;;;;;;5069257;28;20239;-69
2023/01/07 09:40:28;;;;;;;3.15;2.10;;;9.10;99.90;;;;;;5068772;28;20208;-69
2023/01/07 09:43:06;;;;;;;2.33;1.95;;;9.10;99.90;;;;;;5069314;28;20208;-69
2023/01/07 09:45:36;;;;;;;3.10;2.35;;;9.20;99.90;;;;;;5069573;28;20701;-69
2023/01/07 09:48:09;;;;;;;2.58;2.13;;;9.20;99.90;;;;;;5067852;28;20339;-69
2023/01/07 09:50:51;;;;;;;3.38;2.10;;;9.10;99.90;;;;;;5066807;28;20623;-70
2023/01/07 09:53:25;;;;;;;5.05;2.63;;;9.20;99.90;;;;;;5070040;28;20204;-70
2023/01/07 09:55:54;;;;;;;2.75;2.55;;;9.10;99.90;;;;;;5069982;28;20261;-71
2023/01/07 09:58:23;;;;;;;2.97;2.50;;;9.00;99.90;;;;;;5069460;28;20199;-70
2023/01/07 10:00:58;;;;;;;3.25;2.72;;;9.20;99.90;;;;;;5065256;28;20652;-70
2023/01/07 10:03:47;;;;;;;3.70;2.38;;;9.60;99.90;;;;;;5069892;28;20195;-70
2023/01/07 10:06:19;;;;;;;3.85;2.15;;;10.10;99.90;;;;;;5069630;28;20315;-70
2023/01/07 10:09:01;;;;;;;3.10;2.67;;;10.30;99.90;;;;;;5069181;28;20231;-69
2023/01/07 10:11:38;;;;;;;3.20;2.70;;;10.50;99.90;;;;;;5070049;28;20736;-69
2023/01/07 10:14:33;;;;;;;2.63;2.42;;;12.40;99.90;;;;;;5073373;28;20204;-69
2023/01/07 10:17:10;;;;;;;2.57;2.30;;;15.30;99.90;;;;;;5073380;28;20251;-71
2023/01/07 10:19:47;;;;;;;3.93;2.63;;;16.70;99.90;;;;;;5073186;28;20462;-70
2023/01/07 10:22:21;;;;;;;3.00;2.50;;;17.30;99.90;;;;;;5073324;28;20453;-71
2023/01/07 10:24:56;;;;;;;3.20;2.78;;;17.50;99.90;;;;;;5070594;28;20453;-72
2023/01/07 10:27:29;;;;;;;2.70;2.50;;;17.30;99.90;;;;;;5071541;28;20235;-72
2023/01/07 10:30:01;;;;;;;2.57;2.27;;;18.30;99.90;;;;;;5070506;28;20497;-72
2023/01/07 10:32:32;;;;;;;2.40;2.20;;;18.80;98.50;;;;;;5071157;28;20490;-72
2023/01/07 10:35:00;;;;;;;2.37;2.17;;;17.90;98.80;;;;;;5071885;28;20462;-72
2023/01/07 10:37:30;;;;;;;2.20;2.00;;;16.70;99.90;;;;;;5073145;28;20513;-72
2023/01/07 10:40:15;;;;;;;2.63;2.37;;;15.00;99.90;;;;;;5073067;28;20863;-72
2023/01/07 10:42:46;;;;;;;2.23;2.03;;;14.50;99.90;;;;;;5072783;28;20489;-72
2023/01/07 10:45:44;;;;;;;2.43;1.73;;;14.40;99.90;;;;;;5072941;28;20466;-72
2023/01/07 10:48:37;;;;;;;4.07;2.57;;;13.50;99.90;;;;;;5072850;28;20494;-71
2023/01/07 10:51:22;;;;;;;2.97;2.50;;;13.10;99.90;;;;;;5068508;28;20468;-71
2023/01/07 10:53:59;;;;;;;3.63;2.80;;;13.10;99.90;;;;;;5051936;28;20491;-71
2023/01/07 10:56:31;;;;;;;3.73;2.90;;;13.40;99.90;;;;;;5052612;28;20225;-71
2023/01/07 10:58:58;;;;;;;3.08;2.78;;;13.60;99.90;;;;;;5051580;28;20463;-71
2023/01/07 11:01:27;;;;;;;2.70;2.30;;;13.90;99.90;;;;;;5052673;28;20315;-72
2023/01/07 11:03:56;;;;;;;2.73;2.43;;;14.70;99.90;;;;;;5052553;28;20212;-72
2023/01/07 11:06:33;;;;;;;2.70;2.50;;;15.30;99.90;;;;;;5053200;28;20483;-70
2023/01/07 11:09:02;;;;;;;3.43;2.87;;;15.70;99.90;;;;;;5069104;28;20482;-71
2023/01/07 11:11:32;;;;;;;3.43;3.13;;;16.40;99.90;;;;;;5069049;28;21039;-71
2023/01/07 11:14:01;;;;;;;3.00;2.70;;;16.90;99.90;;;;;;5069419;28;20465;-70
2023/01/07 11:16:32;;;;;;;2.70;2.43;;;17.30;99.90;;;;;;5070837;28;20485;-71
2023/01/07 11:19:04;;;;;;;3.30;2.50;;;18.20;99.50;;;;;;5065745;28;20458;-71
2023/01/07 11:21:36;;;;;;;2.60;2.40;;;18.50;98.60;;;;;;5071446;28;20477;-70
2023/01/07 11:24:28;;;;;;;3.20;2.60;;;18.50;98.90;;;;;;5066182;28;20494;-71
2023/01/07 11:27:02;;;;;;;3.30;2.40;;;19.20;98.40;;;;;;5072336;28;20510;-71
2023/01/07 11:29:36;;;;;;;2.58;2.38;;;19.50;97.70;;;;;;5072176;28;20756;-70
2023/01/07 11:32:04;;;;;;;2.97;2.67;;;18.80;97.30;;;;;;5072453;28;20204;-71
2023/01/07 11:34:35;;;;;;;2.30;2.10;;;19.40;97.70;;;;;;5072330;28;20545;-70
2023/01/07 11:37:02;;;;;;;2.13;1.93;;;19.30;97.10;;;;;;5071945;28;20493;-71
2023/01/07 11:39:31;;;;;;;2.57;2.37;;;19.60;96.80;;;;;;5071645;28;20473;-71
2023/01/07 11:42:37;;;;;;;2.40;2.13;;;19.60;96.40;;;;;;5071984;28;20795;-72
2023/01/07 11:44:47;;;;;;;2.17;2.00;;;19.30;97.00;;;;;;5072230;28;20984;-71
2023/01/07 11:47:15;;;;;;;2.80;2.57;;;19.40;96.70;;;;;;5072038;28;20487;-71
2023/01/07 11:49:45;;;;;;;3.37;2.77;;;18.70;97.20;;;;;;5071691;28;20872;-71
2023/01/07 11:52:18;;;;;;;4.20;2.97;;;18.00;97.70;;;;;;5071901;28;20466;-71
2023/01/07 11:54:50;;;;;;;2.60;2.40;;;17.50;98.10;;;;;;5072006;28;20462;-72
2023/01/07 11:57:22;;;;;;;3.97;2.87;;;17.70;98.30;;;;;;5072256;28;20521;-71
2023/01/07 12:00:05;;;;;;;2.60;2.40;;;17.00;98.20;;;;;;5080842;28;20464;-71
2023/01/07 12:02:32;;;;;;;2.63;2.27;;;16.90;99.00;;;;;;5092141;28;20457;-72
2023/01/07 12:05:18;;;;;;;3.70;2.40;;;16.40;98.90;;;;;;5091672;28;20468;-71
2023/01/07 12:07:46;;;;;;;3.10;2.30;;;15.80;99.90;;;;;;5091987;28;20999;-71
2023/01/07 12:10:26;;;;;;;2.70;2.23;;;15.90;99.90;;;;;;5091914;28;20461;-71
2023/01/07 12:12:55;;;;;;;2.70;2.00;;;16.60;99.50;;;;;;5091711;28;20461;-71
2023/01/07 12:15:25;;;;;;;2.90;2.40;;;17.10;98.80;;;;;;5092220;28;20453;-72
2023/01/07 12:18:12;;;;;;;3.57;2.77;;;16.40;98.80;;;;;;5091833;28;20531;-71
2023/01/07 12:21:05;;;;;;;2.17;1.97;;;16.00;99.30;;;;;;5074615;28;20505;-71
2023/01/07 12:23:38;;;;;;;3.30;2.50;;;16.20;99.40;;;;;;5091888;28;20859;-71
2023/01/07 12:26:13;;;;;;;2.70;2.50;;;16.70;99.40;;;;;;5091793;28;20481;-72
2023/01/07 12:28:59;;;;;;;3.17;2.63;;;17.00;99.40;;;;;;5091113;28;21166;-71
2023/01/07 12:31:36;;;;;;;2.37;2.17;;;16.70;98.90;;;;;;5091522;28;20461;-72
2023/01/07 12:34:16;;;;;;;2.50;2.20;;;16.10;99.40;;;;;;5091521;28;20541;-72
2023/01/07 12:36:48;;;;;;;3.07;2.57;;;15.40;99.90;;;;;;5090889;28;20999;-71
2023/01/07 12:39:22;;;;;;;3.00;2.40;;;14.60;99.90;;;;;;5091097;28;20458;-71
2023/01/07 12:41:57;;;;;;;3.10;2.80;;;14.20;99.90;;;;;;5091489;28;20457;-72
2023/01/07 12:44:26;;;;;;;3.17;2.60;;;13.90;99.90;;;;;;5091654;28;20448;-71
2023/01/07 12:47:02;;;;;;;2.87;2.67;;;13.90;99.90;;;;;;5091317;28;20470;-71
2023/01/07 12:49:34;;;;;;;2.55;2.35;;;13.60;99.90;;;;;;5090202;28;20488;-71
2023/01/07 12:52:06;;;;;;;4.88;2.17;;;13.50;99.90;;;;;;5091351;28;20567;-71
2023/01/07 12:54:42;;;;;;;4.60;2.53;;;13.60;99.90;;;;;;5088137;28;20218;-71
2023/01/07 12:57:14;;;;;;;4.25;2.80;;;13.70;99.90;;;;;;5090191;28;20902;-71
2023/01/07 12:59:47;;;;;;;3.20;2.60;;;13.50;99.90;;;;;;5051676;28;20227;-71
2023/01/07 13:02:24;;;;;;;2.33;2.13;;;13.50;99.90;;;;;;5063416;28;20204;-70
2023/01/07 13:05:04;;;;;;;2.80;2.50;;;13.60;99.90;;;;;;5069481;28;20215;-71
2023/01/07 13:07:38;;;;;;;2.92;2.55;;;13.50;99.90;;;;;;5068769;28;20494;-70
2023/01/07 13:10:14;;;;;;;2.92;2.50;;;13.40;99.90;;;;;;5069505;28;20207;-69
2023/01/07 13:12:43;;;;;;;2.97;2.42;;;13.50;99.90;;;;;;5069897;28;20563;-72
2023/01/07 13:15:20;;;;;;;2.67;2.40;;;13.60;99.90;;;;;;5069124;28;20756;-69
2023/01/07 13:17:50;;;;;;;3.33;2.43;;;13.70;99.90;;;;;;5069711;28;20949;-70